Terminal Aerodrome Forecast
Issued by NWS

Home | Current Version | Previous Version | Text Only | Print | Product List | Glossary On
Versions: 1 2 3 4 5 6 7 8 9 10 11 12 13 14 15 16 17 18 19 20 21 22 23 24 25 26 27 28 29 30 31 32
000
FTUS43 KLOT 111600 AAB
TAFMDW
TAF AMD
KMDW 111600Z 1116/1212 17008KT P6SM FEW200 SCT250
     FM111700 13006KT P6SM FEW150 BKN250
     FM112200 19009KT P6SM FEW050 BKN180
     FM120400 17006KT P6SM SCT050 OVC080 PROB30 1209/1212 -TSRA
      BKN040CB=

USA.gov is the U.S. government's official web portal to all federal, state and local government web resources and services.